Time;durP1;ratioP1;P1;durP2;ratioP2;P2;SDS_P1;SDS_P2;PMS_P1;PMS_P2;Temp;Humidity;BMP_temperature;BMP_pressure;BME280_temperature;BME280_humidity;BME280_pressure;Samples;Min_cycle;Max_cycle;Signal;HPM_P1;HPM_P2
2021/09/25 00:01:32;;;;;;;1.62;1.00;;;;;;;11.28;74.77;98736.80;1686338;84;21480;-70
2021/09/25 00:03:59;;;;;;;8.20;1.02;;;;;;;11.21;74.83;98742.05;1693443;83;22160;-69
2021/09/25 00:06:25;;;;;;;4.15;1.12;;;;;;;11.15;74.58;98734.53;1691311;83;21634;-69
2021/09/25 00:08:52;;;;;;;1.32;0.90;;;;;;;11.12;75.17;98734.70;1694941;83;21691;-69
2021/09/25 00:11:19;;;;;;;2.20;0.90;;;;;;;11.18;75.31;98733.01;1697083;83;21543;-69
2021/09/25 00:13:46;;;;;;;3.13;1.00;;;;;;;11.22;74.86;98737.63;1692212;82;21459;-65
2021/09/25 00:16:13;;;;;;;1.75;0.90;;;;;;;11.15;74.86;98741.11;1701432;83;21731;-67
2021/09/25 00:18:39;;;;;;;3.95;1.50;;;;;;;11.14;74.76;98746.45;1699571;83;21480;-67
2021/09/25 00:21:06;;;;;;;1.50;0.80;;;;;;;11.11;75.08;98748.78;1698379;83;21504;-69
2021/09/25 00:23:33;;;;;;;2.58;0.60;;;;;;;11.20;74.91;98740.81;1690226;83;21456;-66
2021/09/25 00:25:59;;;;;;;3.98;0.82;;;;;;;11.19;74.71;98747.00;1713279;82;21451;-67
2021/09/25 00:28:26;;;;;;;1.75;0.80;;;;;;;11.15;74.53;98737.16;1726501;81;21812;-67
2021/09/25 00:30:52;;;;;;;3.87;0.78;;;;;;;11.12;74.51;98739.96;1712690;82;20951;-66
2021/09/25 00:33:19;;;;;;;2.10;0.95;;;;;;;11.15;74.62;98735.84;1715794;81;21478;-67
2021/09/25 00:35:45;;;;;;;3.30;0.72;;;;;;;11.20;74.37;98742.13;1707087;82;20938;-66
2021/09/25 00:38:12;;;;;;;5.25;1.00;;;;;;;11.20;74.08;98742.13;1706240;82;21526;-67
2021/09/25 00:40:39;;;;;;;2.58;1.17;;;;;;;11.17;74.04;98748.88;1690002;82;21849;-68
2021/09/25 00:43:05;;;;;;;4.17;1.00;;;;;;;11.13;74.03;98749.53;1729609;82;21459;-69
2021/09/25 00:45:32;;;;;;;1.27;0.53;;;;;;;11.18;74.33;98754.06;1736853;80;21472;-69
2021/09/25 00:47:59;;;;;;;2.85;0.88;;;;;;;11.26;73.98;98750.52;1732834;81;21535;-68
2021/09/25 00:50:26;;;;;;;1.75;0.78;;;;;;;11.23;73.87;98749.38;1734033;81;21681;-68
2021/09/25 00:52:54;;;;;;;2.37;0.75;;;;;;;11.21;73.76;98755.20;1734130;81;22142;-66
2021/09/25 00:55:22;;;;;;;1.60;0.70;;;;;;;11.17;73.66;98758.96;1735103;81;21558;-66
2021/09/25 00:57:52;;;;;;;1.10;0.90;;;;;;;11.12;73.68;98756.22;1704567;83;21530;-67
2021/09/25 01:00:19;;;;;;;3.10;0.90;;;;;;;11.10;73.99;98757.14;1705246;81;21515;-67
2021/09/25 01:02:46;;;;;;;2.90;0.80;;;;;;;11.19;73.48;98766.73;1751755;80;21496;-68
2021/09/25 01:05:16;;;;;;;4.45;1.22;;;;;;;11.17;73.43;98766.86;1754570;81;21408;-68
2021/09/25 01:07:41;;;;;;;1.87;0.88;;;;;;;11.14;73.42;98769.66;1745344;81;21500;-68
2021/09/25 01:10:09;;;;;;;1.65;0.60;;;;;;;11.06;73.54;98773.22;1734121;81;21570;-68
2021/09/25 01:12:36;;;;;;;1.70;0.80;;;;;;;11.05;73.67;98773.66;1748214;80;21440;-69
2021/09/25 01:15:05;;;;;;;1.65;0.72;;;;;;;11.11;73.52;98773.77;1733204;80;21460;-70
2021/09/25 01:17:32;;;;;;;10.13;1.07;;;;;;;11.11;73.24;98780.34;1677483;83;21782;-68
2021/09/25 01:20:00;;;;;;;2.85;1.15;;;;;;;11.08;73.37;98785.33;1702923;82;21689;-68
2021/09/25 01:22:29;;;;;;;;;;;;;;;11.02;73.41;98790.95;1724512;80;21436;-67
2021/09/25 01:24:56;;;;;;;8.63;1.07;;;;;;;11.01;73.59;98786.62;1733952;82;20153;-67
2021/09/25 01:27:23;;;;;;;2.55;0.90;;;;;;;11.09;73.64;98787.48;1734106;81;21455;-67
2021/09/25 01:29:49;;;;;;;4.50;0.85;;;;;;;11.11;73.17;98785.61;1734308;81;22136;-67
2021/09/25 01:32:17;;;;;;;3.42;0.90;;;;;;;11.07;73.37;98782.78;1735315;81;21495;-65
2021/09/25 01:34:44;;;;;;;;;;;;;;;11.07;73.42;98781.47;1735929;81;21416;-68
2021/09/25 01:37:11;;;;;;;1.10;0.83;;;;;;;11.07;73.45;98780.15;1726014;81;20431;-68
2021/09/25 01:39:37;;;;;;;1.77;0.85;;;;;;;11.17;73.58;98785.27;1725797;81;21427;-68
2021/09/25 01:42:05;;;;;;;7.28;0.75;;;;;;;11.18;73.19;98789.58;1726185;82;22154;-67
2021/09/25 01:44:31;;;;;;;2.17;0.50;;;;;;;11.17;73.07;98787.03;1731209;81;21693;-67
2021/09/25 01:47:00;;;;;;;0.55;0.40;;;;;;;11.16;72.79;98784.88;1732918;81;21531;-66
2021/09/25 01:49:27;;;;;;;5.85;0.82;;;;;;;11.10;72.95;98794.45;1733268;82;20970;-66
2021/09/25 01:51:53;;;;;;;3.00;1.03;;;;;;;11.11;73.10;98797.45;1734232;81;21420;-66
2021/09/25 01:54:20;;;;;;;3.35;0.75;;;;;;;11.15;73.19;98790.22;1735213;81;21834;-67
2021/09/25 01:56:47;;;;;;;3.02;0.90;;;;;;;11.13;73.15;98800.83;1732611;82;21429;-66
2021/09/25 01:59:13;;;;;;;2.57;1.07;;;;;;;11.12;73.21;98810.16;1732768;82;21486;-66
2021/09/25 02:01:40;;;;;;;0.72;0.60;;;;;;;11.09;73.08;98798.88;1733098;82;21447;-66
2021/09/25 02:04:07;;;;;;;1.87;0.85;;;;;;;11.12;73.48;98812.30;1735156;81;21601;-66
2021/09/25 02:06:33;;;;;;;6.75;1.30;;;;;;;11.20;73.21;98814.48;1734013;81;22062;-67
2021/09/25 02:09:00;;;;;;;5.97;0.80;;;;;;;11.19;73.14;98827.25;1732878;81;21563;-67
2021/09/25 02:11:27;;;;;;;2.17;1.10;;;;;;;11.14;73.13;98838.53;1734032;82;21416;-66
2021/09/25 02:13:53;;;;;;;2.40;0.90;;;;;;;11.09;73.06;98837.02;1734040;81;21468;-66
2021/09/25 02:16:20;;;;;;;2.45;0.82;;;;;;;11.10;73.52;98840.02;1729850;81;21507;-67
2021/09/25 02:18:46;;;;;;;4.28;0.80;;;;;;;11.20;73.49;98846.06;1725621;81;21463;-67
2021/09/25 02:21:13;;;;;;;7.35;1.35;;;;;;;11.19;73.46;98855.75;1725646;81;21398;-66
2021/09/25 02:23:40;;;;;;;2.98;0.80;;;;;;;11.19;73.06;98848.30;1725769;82;21492;-66
2021/09/25 02:26:06;;;;;;;2.35;0.80;;;;;;;11.15;73.14;98850.73;1742347;80;21511;-68
2021/09/25 02:28:33;;;;;;;2.62;0.78;;;;;;;11.08;73.06;98855.04;1754481;81;21423;-66
2021/09/25 02:31:00;;;;;;;1.90;0.80;;;;;;;11.11;73.65;98861.90;1748591;81;22212;-66
2021/09/25 02:33:27;;;;;;;4.58;0.70;;;;;;;11.18;73.61;98871.14;1734297;82;21428;-66
2021/09/25 02:35:54;;;;;;;1.77;0.88;;;;;;;11.19;73.28;98870.22;1739185;81;21488;-67
2021/09/25 02:38:21;;;;;;;1.53;0.90;;;;;;;11.13;73.43;98878.92;1754550;81;21568;-66
2021/09/25 02:40:47;;;;;;;2.50;0.78;;;;;;;11.10;73.43;98886.05;1754623;80;21440;-67
2021/09/25 02:43:14;;;;;;;4.50;0.90;;;;;;;11.11;73.83;98881.63;1737899;81;22106;-66
2021/09/25 02:45:40;;;;;;;2.70;1.07;;;;;;;11.26;73.77;98886.48;1736582;80;21551;-67
2021/09/25 02:48:07;;;;;;;3.58;0.95;;;;;;;11.28;73.26;98893.82;1745354;80;21715;-69
2021/09/25 02:50:33;;;;;;;3.72;1.02;;;;;;;11.21;73.36;98897.77;1741718;82;21400;-68
2021/09/25 02:53:00;;;;;;;2.37;1.00;;;;;;;11.18;73.26;98898.77;1741793;82;21499;-67
2021/09/25 02:55:27;;;;;;;1.25;0.75;;;;;;;11.14;73.31;98901.20;1741946;80;22169;-68
2021/09/25 02:57:54;;;;;;;3.25;0.90;;;;;;;11.13;73.76;98898.17;1742864;81;21440;-65
2021/09/25 03:00:21;;;;;;;3.85;1.05;;;;;;;11.22;73.69;98906.02;1741724;80;21519;-66
2021/09/25 03:02:48;;;;;;;4.62;0.90;;;;;;;11.24;73.48;98911.56;1741488;80;21547;-65
2021/09/25 03:05:15;;;;;;;7.17;1.10;;;;;;;11.23;73.56;98915.62;1752853;79;21466;-66
2021/09/25 03:07:41;;;;;;;8.48;1.35;;;;;;;11.20;73.32;98918.42;1760156;81;21506;-66
2021/09/25 03:10:10;;;;;;;3.98;1.22;;;;;;;11.16;73.30;98919.06;1742500;80;22590;-65
2021/09/25 03:12:36;;;;;;;;;;;;;;;11.21;73.71;98923.60;1708501;82;21439;-65
2021/09/25 03:15:04;;;;;;;3.60;1.30;;;;;;;11.26;73.62;98937.36;1689008;84;20451;-65
2021/09/25 03:17:31;;;;;;;4.00;0.72;;;;;;;11.26;73.37;98934.72;1695660;83;21486;-65
2021/09/25 03:19:58;;;;;;;3.92;1.25;;;;;;;11.22;73.31;98938.91;1691380;83;21882;-66
2021/09/25 03:22:25;;;;;;;4.77;0.93;;;;;;;11.20;73.23;98942.10;1684767;84;21454;-66
2021/09/25 03:24:51;;;;;;;6.83;1.20;;;;;;;11.16;73.07;98946.69;1684515;84;20948;-67
2021/09/25 03:27:19;;;;;;;5.10;1.00;;;;;;;11.15;73.65;98944.14;1696361;84;21456;-66
2021/09/25 03:29:46;;;;;;;;;;;;;;;11.24;73.70;98945.77;1699234;83;21491;-66
2021/09/25 03:32:12;;;;;;;3.55;0.78;;;;;;;11.25;73.28;98958.48;1696645;83;21868;-66
2021/09/25 03:34:39;;;;;;;2.15;0.82;;;;;;;11.20;73.30;98959.20;1698187;83;21514;-66
2021/09/25 03:37:06;;;;;;;2.25;1.15;;;;;;;11.20;73.31;98966.63;1698363;84;21435;-67
2021/09/25 03:39:33;;;;;;;3.02;1.17;;;;;;;11.20;73.25;98967.09;1693399;83;20959;-67
2021/09/25 03:41:59;;;;;;;3.77;1.10;;;;;;;11.25;73.33;98972.48;1691651;83;21527;-67
2021/09/25 03:44:26;;;;;;;2.55;1.05;;;;;;;11.33;73.24;98983.89;1680878;83;21439;-67
2021/09/25 03:46:52;;;;;;;2.62;0.93;;;;;;;11.35;73.05;98994.34;1657944;85;21480;-67
2021/09/25 03:49:19;;;;;;;1.85;0.88;;;;;;;11.33;72.91;98984.38;1670838;84;21501;-67
2021/09/25 03:51:46;;;;;;;1.55;1.10;;;;;;;11.26;72.91;98997.88;1698166;83;21562;-67
2021/09/25 03:54:12;;;;;;;3.70;0.90;;;;;;;11.26;73.00;98998.33;1697104;84;21646;-67
2021/09/25 03:56:40;;;;;;;2.72;0.82;;;;;;;11.29;73.40;98996.38;1691507;84;21511;-67
2021/09/25 03:59:06;;;;;;;7.97;1.22;;;;;;;11.40;72.94;99003.67;1691788;84;21449;-67
2021/09/25 04:01:33;;;;;;;2.40;1.27;;;;;;;11.35;72.64;99006.19;1693744;83;21439;-68
2021/09/25 04:04:00;;;;;;;2.50;1.02;;;;;;;11.29;72.62;99002.11;1691418;83;21554;-68
2021/09/25 04:06:26;;;;;;;1.27;0.80;;;;;;;11.24;72.75;98997.09;1696155;84;20980;-67
2021/09/25 04:08:54;;;;;;;6.03;0.90;;;;;;;11.21;72.88;99006.48;1698343;84;22088;-67
2021/09/25 04:11:20;;;;;;;2.80;1.00;;;;;;;11.24;73.06;98999.72;1698056;84;21440;-67
2021/09/25 04:13:47;;;;;;;2.20;0.73;;;;;;;11.38;72.99;99014.76;1694976;83;21519;-69
2021/09/25 04:16:14;;;;;;;2.98;0.85;;;;;;;11.39;73.17;99018.23;1691408;83;21681;-69
2021/09/25 04:18:41;;;;;;;4.35;0.95;;;;;;;11.40;72.96;99021.26;1686870;84;21003;-69
2021/09/25 04:21:07;;;;;;;1.15;0.90;;;;;;;11.39;72.84;99027.45;1688760;84;22198;-68
2021/09/25 04:23:34;;;;;;;3.33;0.93;;;;;;;11.42;73.01;99028.60;1698109;83;21445;-67
2021/09/25 04:26:00;;;;;;;1.60;1.00;;;;;;;11.47;72.71;99026.09;1698197;83;21050;-67
2021/09/25 04:28:27;;;;;;;2.40;0.98;;;;;;;11.48;72.53;99029.56;1698247;83;21435;-68
2021/09/25 04:30:54;;;;;;;3.83;1.47;;;;;;;11.43;72.52;99031.16;1697741;83;21554;-67
2021/09/25 04:33:20;;;;;;;3.75;1.25;;;;;;;11.44;72.41;99037.26;1688901;84;21803;-67
2021/09/25 04:35:47;;;;;;;2.17;1.00;;;;;;;11.37;72.62;99038.05;1697113;83;21544;-68
2021/09/25 04:38:14;;;;;;;4.08;0.90;;;;;;;11.40;73.04;99048.89;1698223;84;21488;-68
2021/09/25 04:40:40;;;;;;;3.17;1.00;;;;;;;11.47;72.95;99048.47;1698281;84;21063;-67
2021/09/25 04:43:07;;;;;;;3.35;0.85;;;;;;;11.47;72.77;99050.23;1697754;84;21431;-68
2021/09/25 04:45:34;;;;;;;1.30;1.02;;;;;;;11.49;72.58;99054.97;1698207;83;21882;-68
2021/09/25 04:48:00;;;;;;;2.77;1.00;;;;;;;11.42;72.45;99053.61;1698253;83;21606;-67
2021/09/25 04:50:30;;;;;;;2.15;1.00;;;;;;;11.41;72.57;99055.84;1691085;83;21010;-69
2021/09/25 04:53:13;;;;;;;2.98;1.27;;;;;;;11.44;72.63;99061.79;1691163;84;21443;-70
2021/09/25 04:55:41;;;;;;;3.37;0.90;;;;;;;11.57;72.47;99056.69;1691107;83;21600;-67
2021/09/25 04:58:08;;;;;;;;;;;;;;;11.61;72.15;99066.11;1693870;83;22206;-68
2021/09/25 05:00:34;;;;;;;4.45;0.90;;;;;;;11.57;71.95;99065.91;1689019;83;20469;-68
2021/09/25 05:03:01;;;;;;;2.47;1.00;;;;;;;11.54;71.83;99073.13;1688756;83;21522;-64
2021/09/25 05:05:27;;;;;;;1.35;0.90;;;;;;;11.47;71.84;99085.32;1688816;84;21081;-64
2021/09/25 05:07:54;;;;;;;2.52;1.10;;;;;;;11.49;72.37;99095.30;1694273;83;21483;-64
2021/09/25 05:10:21;;;;;;;2.45;1.07;;;;;;;11.64;72.47;99098.86;1693181;83;21830;-63
2021/09/25 05:12:47;;;;;;;4.08;1.00;;;;;;;11.69;72.10;99111.28;1687926;83;21540;-63
2021/09/25 05:15:14;;;;;;;1.92;1.02;;;;;;;11.71;71.91;99115.63;1730501;80;21415;-63
2021/09/25 05:17:41;;;;;;;2.72;0.90;;;;;;;11.66;71.46;99123.80;1716008;82;20990;-63
2021/09/25 05:20:09;;;;;;;1.70;1.07;;;;;;;11.57;71.40;99128.25;1734265;81;21486;-63
2021/09/25 05:22:36;;;;;;;1.35;0.80;;;;;;;11.50;71.43;99127.25;1733980;80;21762;-63
2021/09/25 05:25:03;;;;;;;3.05;1.10;;;;;;;11.53;71.50;99137.23;1733473;81;21496;-64
2021/09/25 05:27:30;;;;;;;5.30;1.20;;;;;;;11.60;71.76;99138.16;1732549;82;21565;-63
2021/09/25 05:29:56;;;;;;;3.15;1.07;;;;;;;11.64;71.69;99138.80;1734307;81;20943;-63
2021/09/25 05:32:23;;;;;;;2.27;1.20;;;;;;;11.62;71.15;99141.55;1734017;80;21549;-63
2021/09/25 05:34:49;;;;;;;1.80;1.40;;;;;;;11.59;71.11;99145.66;1734160;80;21687;-64
2021/09/25 05:37:17;;;;;;;7.30;1.27;;;;;;;11.55;70.82;99148.08;1732099;82;21432;-64
2021/09/25 05:39:46;;;;;;;1.12;0.70;;;;;;;11.54;71.09;99150.79;1733856;81;21432;-63
2021/09/25 05:42:14;;;;;;;5.50;1.00;;;;;;;11.64;71.38;99152.84;1733923;80;21421;-64
2021/09/25 05:44:45;;;;;;;3.20;1.02;;;;;;;11.66;71.31;99154.92;1733515;82;21491;-62
2021/09/25 05:47:09;;;;;;;2.15;0.80;;;;;;;11.65;71.07;99162.42;1703908;83;22146;-62
2021/09/25 05:49:36;;;;;;;4.30;1.07;;;;;;;11.62;70.58;99165.69;1719897;81;21408;-63
2021/09/25 05:52:04;;;;;;;2.10;0.75;;;;;;;11.55;70.45;99166.98;1727872;82;21463;-62
2021/09/25 05:54:31;;;;;;;2.75;0.70;;;;;;;11.54;70.70;99168.75;1727788;82;20930;-63
2021/09/25 05:56:58;;;;;;;2.27;0.98;;;;;;;11.56;70.68;99171.30;1709801;81;21646;-63
2021/09/25 05:59:24;;;;;;;5.87;1.07;;;;;;;11.56;70.04;99177.88;1729689;82;22148;-62
2021/09/25 06:01:51;;;;;;;1.95;0.98;;;;;;;11.47;70.40;99178.77;1716334;81;21562;-62
2021/09/25 06:04:17;;;;;;;2.83;0.93;;;;;;;11.41;70.54;99185.66;1704790;82;21440;-63
2021/09/25 06:06:44;;;;;;;1.70;0.90;;;;;;;11.44;70.67;99185.52;1722797;82;21460;-67
2021/09/25 06:09:10;;;;;;;2.40;0.72;;;;;;;11.46;70.60;99198.59;1727011;81;21531;-62
2021/09/25 06:11:37;;;;;;;2.00;0.98;;;;;;;11.52;70.97;99198.73;1728945;81;21442;-62
2021/09/25 06:14:03;;;;;;;3.00;1.00;;;;;;;11.57;70.72;99205.45;1727657;80;21455;-66
2021/09/25 06:16:30;;;;;;;1.52;0.90;;;;;;;11.63;70.44;99204.27;1726544;80;21539;-64
2021/09/25 06:18:57;;;;;;;1.85;0.85;;;;;;;11.56;70.45;99211.63;1728601;80;21073;-66
2021/09/25 06:21:23;;;;;;;2.50;0.78;;;;;;;11.56;70.49;99211.63;1723054;82;21673;-62
2021/09/25 06:23:50;;;;;;;2.35;0.75;;;;;;;11.52;70.27;99219.80;1731929;80;22108;-64
2021/09/25 06:26:16;;;;;;;3.35;0.78;;;;;;;11.53;70.57;99221.03;1701418;82;21484;-67
2021/09/25 06:28:46;;;;;;;2.27;0.80;;;;;;;11.61;70.35;99222.78;1703675;81;21506;-70
2021/09/25 06:31:11;;;;;;;1.77;0.90;;;;;;;11.63;70.24;99214.80;1702653;81;21733;-69
2021/09/25 06:33:38;;;;;;;3.00;0.80;;;;;;;11.58;70.18;99207.14;1720968;80;21462;-68
2021/09/25 06:36:06;;;;;;;1.57;1.00;;;;;;;11.57;70.32;99204.61;1733251;80;21808;-67
2021/09/25 06:38:33;;;;;;;3.87;0.90;;;;;;;11.54;69.96;99219.24;1734088;82;20987;-69
2021/09/25 06:41:00;;;;;;;1.05;0.70;;;;;;;11.56;70.58;99210.32;1756415;81;21456;-68
2021/09/25 06:43:27;;;;;;;1.00;0.80;;;;;;;11.73;70.47;99221.73;1759831;79;21518;-66
2021/09/25 06:45:53;;;;;;;2.90;0.80;;;;;;;11.81;69.98;99227.42;1740367;81;21472;-67
2021/09/25 06:48:20;;;;;;;1.80;0.80;;;;;;;11.78;69.67;99229.77;1742963;80;22247;-68
2021/09/25 06:50:47;;;;;;;4.85;1.05;;;;;;;11.79;69.53;99227.53;1743433;80;21396;-69
2021/09/25 06:53:14;;;;;;;7.35;0.95;;;;;;;11.79;69.28;99231.92;1746504;80;21655;-67
2021/09/25 06:55:41;;;;;;;2.25;1.10;;;;;;;11.76;69.55;99245.28;1741284;81;21563;-69
2021/09/25 06:58:07;;;;;;;2.65;1.00;;;;;;;11.82;70.28;99250.21;1747410;80;21480;-66
2021/09/25 07:00:35;;;;;;;1.57;0.95;;;;;;;11.99;70.27;99257.23;1747396;80;21775;-66
2021/09/25 07:03:02;;;;;;;2.90;1.07;;;;;;;12.10;69.50;99256.65;1747491;81;20982;-66
2021/09/25 07:05:28;;;;;;;5.00;1.40;;;;;;;12.07;69.17;99262.47;1747168;80;21503;-64
2021/09/25 07:07:55;;;;;;;2.90;1.30;;;;;;;12.10;69.01;99268.50;1746424;81;21479;-71
2021/09/25 07:10:23;;;;;;;6.40;1.35;;;;;;;12.12;68.87;99264.84;1745853;81;20990;-67
2021/09/25 07:12:49;;;;;;;1.47;1.00;;;;;;;12.11;69.02;99266.23;1744295;80;21589;-68
2021/09/25 07:15:16;;;;;;;3.87;1.33;;;;;;;12.18;69.62;99264.97;1736556;80;21639;-69
2021/09/25 07:17:43;;;;;;;5.72;0.95;;;;;;;12.30;69.38;99266.06;1746359;80;21614;-75
2021/09/25 07:20:11;;;;;;;4.35;1.45;;;;;;;12.37;69.31;99262.16;1739743;80;21507;-70
2021/09/25 07:22:38;;;;;;;3.22;0.90;;;;;;;12.39;69.01;99270.34;1736881;80;21551;-72
2021/09/25 07:25:05;;;;;;;4.28;1.20;;;;;;;12.41;69.27;99264.55;1735951;80;21876;-70
2021/09/25 07:27:31;;;;;;;6.27;1.20;;;;;;;12.40;68.82;99268.11;1713791;82;21616;-72
2021/09/25 07:29:58;;;;;;;4.17;1.30;;;;;;;12.38;68.52;99272.62;1718991;80;21578;-69
2021/09/25 07:32:24;;;;;;;2.33;1.30;;;;;;;12.34;68.97;99268.46;1708126;82;21522;-66
2021/09/25 07:34:51;;;;;;;5.30;1.80;;;;;;;12.43;69.24;99269.71;1710449;83;21532;-65
2021/09/25 07:37:17;;;;;;;3.25;1.15;;;;;;;12.48;69.18;99266.83;1718013;82;21803;-65
2021/09/25 07:39:44;;;;;;;3.95;1.35;;;;;;;12.52;69.01;99272.30;1711391;83;21590;-64
2021/09/25 07:42:11;;;;;;;2.52;1.25;;;;;;;12.53;69.03;99272.70;1704677;82;21433;-63
2021/09/25 07:44:37;;;;;;;2.70;1.10;;;;;;;12.59;69.07;99280.26;1695181;83;20973;-62
2021/09/25 07:47:04;;;;;;;2.40;1.37;;;;;;;12.68;68.93;99274.91;1691172;82;21518;-64
2021/09/25 07:49:31;;;;;;;5.08;1.30;;;;;;;12.74;68.79;99279.38;1700076;81;21683;-63
2021/09/25 07:51:57;;;;;;;5.30;1.80;;;;;;;12.80;68.26;99278.17;1754999;80;21404;-66
2021/09/25 07:54:24;;;;;;;7.78;1.50;;;;;;;12.82;68.31;99279.77;1755163;81;21432;-62
2021/09/25 07:56:51;;;;;;;1.45;1.07;;;;;;;12.83;68.12;99274.89;1742463;81;21559;-67
2021/09/25 07:59:17;;;;;;;2.15;1.10;;;;;;;12.83;68.27;99282.80;1739487;81;21413;-67
2021/09/25 08:01:44;;;;;;;4.97;1.50;;;;;;;12.87;68.37;99290.08;1739849;82;21763;-68
2021/09/25 08:04:11;;;;;;;3.05;1.10;;;;;;;12.84;67.91;99282.33;1737667;81;21407;-67
2021/09/25 08:06:37;;;;;;;5.83;1.10;;;;;;;12.85;68.49;99298.08;1731168;82;21476;-67
2021/09/25 08:09:04;;;;;;;3.22;1.17;;;;;;;12.99;68.35;99293.78;1730769;82;21586;-67
2021/09/25 08:11:31;;;;;;;7.25;1.50;;;;;;;13.06;67.66;99289.85;1736006;80;21525;-68
2021/09/25 08:13:57;;;;;;;2.98;1.22;;;;;;;13.06;67.66;99289.85;1709907;82;21711;-70
2021/09/25 08:16:24;;;;;;;4.67;1.30;;;;;;;13.09;67.51;99289.69;1736733;80;20971;-66
2021/09/25 08:18:51;;;;;;;8.60;1.65;;;;;;;13.10;67.62;99290.05;1739595;82;21479;-68
2021/09/25 08:21:18;;;;;;;1.87;1.10;;;;;;;13.12;66.91;99296.56;1739870;82;21468;-69
2021/09/25 08:23:44;;;;;;;6.28;1.42;;;;;;;13.13;66.94;99301.75;1739845;82;20954;-67
2021/09/25 08:26:11;;;;;;;5.35;1.42;;;;;;;13.15;67.21;99304.31;1733820;80;22099;-65
2021/09/25 08:28:38;;;;;;;4.35;1.10;;;;;;;13.29;67.65;99307.45;1728313;80;21508;-67
2021/09/25 08:31:04;;;;;;;4.17;1.10;;;;;;;13.42;67.25;99309.77;1726744;80;21021;-65
2021/09/25 08:33:31;;;;;;;3.90;1.00;;;;;;;13.44;66.79;99313.16;1729226;80;21849;-65
2021/09/25 08:35:59;;;;;;;3.62;1.40;;;;;;;13.43;65.99;99319.40;1729591;80;21513;-66
2021/09/25 08:38:26;;;;;;;5.67;1.47;;;;;;;13.41;65.37;99326.53;1736272;80;21955;-68
2021/09/25 08:40:53;;;;;;;4.92;1.05;;;;;;;13.34;65.82;99327.86;1739879;81;21490;-68
2021/09/25 08:43:24;;;;;;;3.77;1.30;;;;;;;13.32;65.92;99331.07;1747466;80;21533;-67
2021/09/25 08:45:52;;;;;;;5.65;1.12;;;;;;;13.34;66.19;99330.03;1757276;80;20928;-66
2021/09/25 08:48:16;;;;;;;3.17;1.30;;;;;;;13.34;65.69;99339.75;1763997;79;21419;-67
2021/09/25 08:50:43;;;;;;;1.50;1.07;;;;;;;13.44;66.20;99340.89;1745767;80;22017;-66
2021/09/25 08:53:10;;;;;;;2.87;1.17;;;;;;;13.57;65.01;99336.57;1747411;80;21432;-64
2021/09/25 08:55:37;;;;;;;4.42;1.47;;;;;;;13.53;64.91;99336.86;1740990;80;21517;-67
2021/09/25 08:58:03;;;;;;;6.85;1.50;;;;;;;13.52;64.83;99339.95;1717351;81;21526;-66
2021/09/25 09:00:39;;;;;;;3.60;1.57;;;;;;;13.51;64.90;99346.19;1717853;81;21553;-65
2021/09/25 09:03:25;;;;;;;4.83;1.47;;;;;;;13.58;64.96;99352.81;1716958;81;22030;-65
2021/09/25 09:05:54;;;;;;;5.75;1.30;;;;;;;13.56;65.11;99349.41;1725289;81;21484;-66
2021/09/25 09:08:23;;;;;;;4.95;1.22;;;;;;;13.58;64.88;99353.26;1747381;80;21002;-65
2021/09/25 09:10:49;;;;;;;8.20;1.80;;;;;;;13.56;65.04;99355.14;1745596;81;21537;-68
2021/09/25 09:13:16;;;;;;;3.10;1.20;;;;;;;13.58;65.30;99359.41;1736957;80;21435;-65
2021/09/25 09:15:43;;;;;;;7.00;1.50;;;;;;;13.68;65.74;99357.55;1738443;80;22021;-66
2021/09/25 09:18:14;;;;;;;4.77;1.80;;;;;;;13.82;65.65;99352.26;1719766;82;21561;-64
2021/09/25 09:21:02;;;;;;;4.25;1.20;;;;;;;13.91;65.26;99356.14;1675056;83;22699;-64
2021/09/25 09:23:30;;;;;;;4.45;1.65;;;;;;;13.96;65.38;99351.44;1652730;83;21005;-65
2021/09/25 09:25:56;;;;;;;;;;;;;;;14.04;65.02;99347.00;1681155;83;21548;-66
2021/09/25 09:28:26;;;;;;;8.25;2.35;;;;;;;14.07;64.38;99346.34;1674327;83;20456;-65
2021/09/25 09:30:55;;;;;;;7.08;1.55;;;;;;;14.07;64.45;99353.39;1676231;83;21492;-67
2021/09/25 09:33:36;;;;;;;4.78;1.85;;;;;;;14.09;64.86;99348.41;1692485;84;21499;-66
2021/09/25 09:36:29;;;;;;;4.40;1.70;;;;;;;14.14;65.09;99338.86;1689369;84;21658;-66
2021/09/25 09:39:20;;;;;;;4.95;1.82;;;;;;;14.13;64.68;99340.66;1664283;85;21497;-65
2021/09/25 09:41:55;;;;;;;4.95;1.52;;;;;;;14.21;64.77;99336.21;1665455;85;21471;-66
2021/09/25 09:44:25;;;;;;;5.15;1.52;;;;;;;14.30;64.39;99348.86;1668812;82;21571;-64
2021/09/25 09:47:00;;;;;;;6.10;1.60;;;;;;;14.26;63.46;99337.23;1691209;83;21478;-65
2021/09/25 09:49:39;;;;;;;4.97;1.75;;;;;;;14.20;64.12;99336.70;1696120;83;21456;-65
2021/09/25 09:52:11;;;;;;;4.22;1.75;;;;;;;14.21;64.62;99339.70;1706294;83;21435;-63
2021/09/25 09:54:40;;;;;;;5.37;1.32;;;;;;;14.25;64.96;99339.03;1706149;83;22137;-66
2021/09/25 09:57:16;;;;;;;6.72;1.90;;;;;;;14.24;63.57;99338.67;1704956;83;20962;-63
2021/09/25 09:59:43;;;;;;;3.83;1.30;;;;;;;14.19;64.06;99338.95;1706068;83;21542;-65
2021/09/25 10:02:10;;;;;;;6.60;1.37;;;;;;;14.21;63.63;99338.86;1698797;82;21667;-66
2021/09/25 10:04:37;;;;;;;2.55;1.10;;;;;;;14.16;63.57;99338.28;1706113;82;20945;-66
2021/09/25 10:07:04;;;;;;;6.00;1.55;;;;;;;14.16;63.87;99336.48;1695171;82;21883;-67
2021/09/25 10:09:33;;;;;;;2.42;1.20;;;;;;;14.28;63.74;99330.92;1712280;83;21566;-66
2021/09/25 10:12:10;;;;;;;4.00;1.55;;;;;;;14.25;63.30;99324.97;1712190;83;21545;-65
2021/09/25 10:14:39;;;;;;;6.70;1.60;;;;;;;14.22;63.55;99319.38;1729346;82;21511;-68
2021/09/25 10:17:08;;;;;;;2.45;1.25;;;;;;;14.26;63.43;99315.63;1740894;80;21643;-67
2021/09/25 10:19:39;;;;;;;3.62;1.25;;;;;;;14.33;63.35;99322.20;1747656;80;21401;-64
2021/09/25 10:22:24;;;;;;;3.40;1.10;;;;;;;14.41;62.87;99313.33;1735412;82;21415;-64
2021/09/25 10:24:56;;;;;;;2.87;1.45;;;;;;;14.48;61.94;99321.70;1712333;82;21432;-65
2021/09/25 10:27:28;;;;;;;4.12;1.32;;;;;;;14.55;61.86;99323.49;1730001;82;21487;-63
2021/09/25 10:29:55;;;;;;;5.10;1.55;;;;;;;14.61;61.11;99323.13;1679096;83;21440;-61
2021/09/25 10:32:31;;;;;;;4.30;1.60;;;;;;;14.62;60.89;99326.16;1703911;82;22127;-63
2021/09/25 10:35:18;;;;;;;5.25;1.57;;;;;;;14.62;60.61;99307.63;1705084;82;21602;-62
2021/09/25 10:37:51;;;;;;;4.12;1.30;;;;;;;14.64;60.77;99311.51;1702926;83;21550;-62
2021/09/25 10:40:21;;;;;;;3.52;1.65;;;;;;;14.66;61.25;99317.55;1705262;82;21006;-62
2021/09/25 10:42:52;;;;;;;4.30;1.80;;;;;;;14.68;60.46;99316.97;1746655;80;21460;-62
2021/09/25 10:45:27;;;;;;;7.67;2.25;;;;;;;14.70;61.10;99312.42;1696268;83;22054;-62
2021/09/25 10:48:15;;;;;;;5.45;1.55;;;;;;;14.79;60.85;99311.83;1748294;80;21448;-62
2021/09/25 10:51:10;;;;;;;4.65;1.60;;;;;;;14.86;60.49;99305.64;1733959;81;21522;-62
2021/09/25 10:53:40;;;;;;;3.70;1.12;;;;;;;14.96;60.44;99304.09;1734852;80;21460;-63
2021/09/25 10:56:22;;;;;;;5.00;1.60;;;;;;;15.09;59.82;99311.59;1671841;83;20950;-60
2021/09/25 11:02:07;;;;;;;3.52;1.30;;;;;;;15.41;57.66;99301.95;1778599;79;23170;-63
2021/09/25 11:04:34;;;;;;;5.30;1.30;;;;;;;15.49;58.06;99310.70;1740316;80;21428;-63
2021/09/25 11:07:03;;;;;;;5.50;1.60;;;;;;;15.61;58.00;99307.20;1745054;80;22125;-62
2021/09/25 11:09:34;;;;;;;4.42;1.40;;;;;;;15.70;57.35;99307.05;1733392;81;21549;-64
2021/09/25 11:12:11;;;;;;;6.28;1.60;;;;;;;15.76;56.26;99319.44;1745603;80;21498;-63
2021/09/25 11:14:52;;;;;;;3.85;1.30;;;;;;;15.75;56.50;99308.94;1747710;80;21409;-60
2021/09/25 11:17:27;;;;;;;3.87;1.30;;;;;;;15.74;55.41;99308.07;1747496;81;21524;-61
2021/09/25 11:20:05;;;;;;;4.90;1.70;;;;;;;15.75;56.37;99306.30;1738407;81;22136;-64
2021/09/25 11:22:47;;;;;;;7.15;1.75;;;;;;;15.72;56.47;99308.63;1745718;81;21539;-60
2021/09/25 11:25:15;;;;;;;3.20;1.62;;;;;;;15.65;56.37;99303.86;1746687;81;21479;-65
2021/09/25 11:27:47;;;;;;;5.50;1.80;;;;;;;15.54;55.85;99312.09;1739731;81;20995;-66
2021/09/25 11:30:19;;;;;;;4.20;1.80;;;;;;;15.51;55.88;99308.80;1741778;81;21464;-67
2021/09/25 11:32:52;;;;;;;5.55;2.17;;;;;;;15.46;56.54;99318.36;1745664;80;22153;-65
2021/09/25 11:35:22;;;;;;;4.87;2.12;;;;;;;15.43;57.03;99317.27;1742399;81;21530;-65
2021/09/25 11:37:59;;;;;;;8.28;2.20;;;;;;;15.42;57.40;99331.45;1747579;81;21523;-65
2021/09/25 11:40:35;;;;;;;8.13;2.83;;;;;;;15.41;57.53;99329.77;1701654;82;21459;-63
2021/09/25 11:43:08;;;;;;;9.25;2.35;;;;;;;15.33;58.01;99322.35;1714485;81;21284;-64